Bloomington の空港の天気 - METARとTAF

ミネアポリス・セントポール国際空港 ( KMSP / MSP ) - アメリカ ミネソタ州Bloomington
飛行場実況気象(Metar)
観測時間09/30 00:53 CDT (09/30 05:53 UTC)
風向・風速静穏 0m/s
視程10km以上
天気現象
なし
気温10.6℃
湿度77%
気圧1002.4hPa
METARKMSP 300553Z 00000KT 10SM CLR 11/07 A2960 RMK AO2 SLP024 T01060067 10167 20100 401780089 58020
過去の天気等 Google飛行場航空写真 Wunderground天気予報

過去48時間のMETAR

飛行場予報(TAF)
発表時間: 9/30 00:20 CDT (9/30 05:20 UTC)
予報対象時間: 30日1時 CDT ~ 1日7時 CDT
風向・風速南西 4m/s
視程10km以上
全天の8割程度の雲 雲底高度 1830m
30日2時 CDT ~ 30日6時 CDT に一時的に
天気現象弱いしゅう雨
30日6時 CDT から
風向・風速西北西 7m/s 瞬間風速 12m/s
視程10km以上
全天の4割程度の雲 雲底高度 1830m
30日9時 CDT から
風向・風速北西 11m/s 瞬間風速 16m/s
視程10km以上
全天の8割程度の雲 雲底高度 1520m
30日15時 CDT から 確率 30% で
天気現象弱いしゅう雨
30日20時 CDT から
風向・風速西北西 7m/s 瞬間風速 10m/s
視程10km以上
全天を覆う雲 雲底高度 3050m
KMSP 300520Z 3006/0112 22008KT P6SM BKN060
TEMPO 3007/3011 -SHRA
FM301100 30014G24KT P6SM SCT060
FM301400 31022G32KT P6SM BKN050
PROB30 3020/0101 -SHRA
FM010100 30013G19KT P6SM OVC100